Time;durP1;ratioP1;P1;durP2;ratioP2;P2;SDS_P1;SDS_P2;PMS_P1;PMS_P2;Temp;Humidity;BMP_temperature;BMP_pressure;BME280_temperature;BME280_humidity;BME280_pressure;Samples;Min_cycle;Max_cycle;Signal;HPM_P1;HPM_P2
2020/12/29 00:00:56;;;;;;;0.10;0.10;;;;;;;;;;4990183;28;20025;-71
2020/12/29 00:03:28;;;;;;;0.00;0.00;;;;;;;;;;4990779;28;20241;-74
2020/12/29 00:06:05;;;;;;;0.70;0.70;;;;;;;;;;4990732;28;20056;-73
2020/12/29 00:08:31;;;;;;;0.00;0.00;;;;;;;;;;4987359;28;20504;-74
2020/12/29 00:10:58;;;;;;;0.00;0.00;;;;;;;;;;4990105;28;20188;-75
2020/12/29 00:13:26;;;;;;;1.98;0.60;;;;;;;;;;4987906;28;20234;-75
2020/12/29 00:15:52;;;;;;;0.00;0.00;;;;;;;;;;4992786;28;20361;-75
2020/12/29 00:18:25;;;;;;;0.10;0.10;;;;;;;;;;4991532;28;20559;-74
2020/12/29 00:20:50;;;;;;;0.00;0.00;;;;;;;;;;4985652;28;21004;-73
2020/12/29 00:23:16;;;;;;;0.00;0.00;;;;;;;;;;4965194;28;20034;-74
2020/12/29 00:25:42;;;;;;;0.00;0.00;;;;;;;;;;4983689;28;20470;-73
2020/12/29 00:28:08;;;;;;;0.00;0.00;;;;;;;;;;4983339;28;20388;-73
2020/12/29 00:30:33;;;;;;;0.05;0.05;;;;;;;;;;4985169;28;20071;-73
2020/12/29 00:32:59;;;;;;;0.00;0.00;;;;;;;;;;4980427;28;20038;-72
2020/12/29 00:35:26;;;;;;;0.00;0.00;;;;;;;;;;4998079;28;20247;-73
2020/12/29 00:37:52;;;;;;;0.00;0.00;;;;;;;;;;4982698;28;21856;-72
2020/12/29 00:40:18;;;;;;;0.00;0.00;;;;;;;;;;4981707;28;20042;-72
2020/12/29 00:42:43;;;;;;;0.00;0.00;;;;;;;;;;4982839;28;20460;-72
2020/12/29 00:45:09;;;;;;;0.00;0.00;;;;;;;;;;4998103;28;20412;-71
2020/12/29 00:47:37;;;;;;;0.00;0.00;;;;;;;;;;4982363;28;20753;-73
2020/12/29 00:50:04;;;;;;;0.03;0.03;;;;;;;;;;4983255;28;20252;-72
2020/12/29 00:52:33;;;;;;;0.00;0.00;;;;;;;;;;4984057;28;20033;-72
2020/12/29 00:54:58;;;;;;;0.63;0.63;;;;;;;;;;5002349;28;20037;-71
2020/12/29 00:57:24;;;;;;;0.00;0.00;;;;;;;;;;4983283;28;20145;-72
2020/12/29 00:59:49;;;;;;;0.00;0.00;;;;;;;;;;4984008;28;20442;-72
2020/12/29 01:02:15;;;;;;;0.00;0.00;;;;;;;;;;5002002;28;20597;-71
2020/12/29 01:04:43;;;;;;;0.00;0.00;;;;;;;;;;4987238;28;20070;-71
2020/12/29 01:07:09;;;;;;;0.10;0.10;;;;;;;;;;5001111;28;20041;-70
2020/12/29 01:09:35;;;;;;;0.00;0.00;;;;;;;;;;5002973;28;20030;-71
2020/12/29 01:12:02;;;;;;;0.00;0.00;;;;;;;;;;4997479;28;20183;-70
2020/12/29 01:14:28;;;;;;;0.00;0.00;;;;;;;;;;4986037;28;20026;-70
2020/12/29 01:16:59;;;;;;;0.00;0.00;;;;;;;;;;4980885;28;21691;-70
2020/12/29 01:19:25;;;;;;;0.20;0.20;;;;;;;;;;4984630;28;20062;-70
2020/12/29 01:21:51;;;;;;;0.00;0.00;;;;;;;;;;5001132;28;20108;-70
2020/12/29 01:24:16;;;;;;;0.00;0.00;;;;;;;;;;5000902;28;20029;-70
2020/12/29 01:26:44;;;;;;;0.00;0.00;;;;;;;;;;4987532;28;20202;-71
2020/12/29 01:29:10;;;;;;;0.00;0.00;;;;;;;;;;4984956;28;20034;-71
2020/12/29 01:31:35;;;;;;;0.00;0.00;;;;;;;;;;4984690;28;20036;-70
2020/12/29 01:34:01;;;;;;;0.00;0.00;;;;;;;;;;5000921;28;20360;-71
2020/12/29 01:36:27;;;;;;;0.00;0.00;;;;;;;;;;4999082;28;20123;-71
2020/12/29 01:38:52;;;;;;;0.00;0.00;;;;;;;;;;4999979;28;20030;-71
2020/12/29 01:41:18;;;;;;;0.00;0.00;;;;;;;;;;4986668;28;20202;-71
2020/12/29 01:43:44;;;;;;;0.20;0.20;;;;;;;;;;4983111;28;20043;-71
2020/12/29 01:46:12;;;;;;;0.00;0.00;;;;;;;;;;4990855;28;20030;-71
2020/12/29 01:48:38;;;;;;;0.00;0.00;;;;;;;;;;4985117;28;20057;-72
2020/12/29 01:51:03;;;;;;;0.00;0.00;;;;;;;;;;4985449;28;20040;-70
2020/12/29 01:53:29;;;;;;;0.00;0.00;;;;;;;;;;5000114;28;20026;-71
2020/12/29 01:55:55;;;;;;;0.22;0.22;;;;;;;;;;4987054;28;20026;-70
2020/12/29 01:58:20;;;;;;;0.00;0.00;;;;;;;;;;5001244;28;20080;-70
2020/12/29 02:00:46;;;;;;;0.00;0.00;;;;;;;;;;4985961;28;20117;-71
2020/12/29 02:03:14;;;;;;;0.00;0.00;;;;;;;;;;4987495;28;20451;-70
2020/12/29 02:05:40;;;;;;;0.00;0.00;;;;;;;;;;4984975;28;20136;-71
2020/12/29 02:08:06;;;;;;;0.00;0.00;;;;;;;;;;4984727;28;20488;-69
2020/12/29 02:10:31;;;;;;;0.00;0.00;;;;;;;;;;4987459;28;20030;-70
2020/12/29 02:13:00;;;;;;;0.00;0.00;;;;;;;;;;4985740;28;20112;-70
2020/12/29 02:15:25;;;;;;;0.00;0.00;;;;;;;;;;4983161;28;20660;-70
2020/12/29 02:17:53;;;;;;;0.00;0.00;;;;;;;;;;4981522;28;20041;-70
2020/12/29 02:20:21;;;;;;;0.00;0.00;;;;;;;;;;4987129;28;20236;-71
2020/12/29 02:23:20;;;;;;;0.00;0.00;;;;;;;;;;4983271;28;20552;-71
2020/12/29 02:25:47;;;;;;;0.25;0.22;;;;;;;;;;4984866;28;20428;-69
2020/12/29 02:28:12;;;;;;;0.05;0.05;;;;;;;;;;4985074;28;20502;-72
2020/12/29 02:30:37;;;;;;;0.30;0.30;;;;;;;;;;4987355;28;20846;-69
2020/12/29 02:33:06;;;;;;;0.00;0.00;;;;;;;;;;4982351;28;20038;-71
2020/12/29 02:35:31;;;;;;;0.05;0.05;;;;;;;;;;4985567;28;20120;-71
2020/12/29 02:37:57;;;;;;;0.75;0.75;;;;;;;;;;4999056;28;20044;-70
2020/12/29 02:40:24;;;;;;;0.00;0.00;;;;;;;;;;4982550;28;20112;-70
2020/12/29 02:42:52;;;;;;;0.00;0.00;;;;;;;;;;4981172;28;20037;-71
2020/12/29 02:48:54;;;;;;;0.00;0.00;;;;;;;;;;4982172;28;20037;-69
2020/12/29 02:51:19;;;;;;;0.30;0.30;;;;;;;;;;4999393;28;20025;-69
2020/12/29 02:53:52;;;;;;;0.00;0.00;;;;;;;;;;4980824;28;20038;-69
2020/12/29 02:56:18;;;;;;;0.00;0.00;;;;;;;;;;4998018;28;20620;-70
2020/12/29 02:58:46;;;;;;;0.60;0.60;;;;;;;;;;4965948;28;20049;-70
2020/12/29 03:01:14;;;;;;;0.00;0.00;;;;;;;;;;4983865;28;20030;-71
2020/12/29 03:03:39;;;;;;;0.00;0.00;;;;;;;;;;4998332;28;20046;-70
2020/12/29 03:06:04;;;;;;;0.00;0.00;;;;;;;;;;5001952;28;20240;-71
2020/12/29 03:08:33;;;;;;;0.00;0.00;;;;;;;;;;4983680;28;20145;-68
2020/12/29 03:11:03;;;;;;;0.80;0.80;;;;;;;;;;4985054;28;20092;-71
2020/12/29 03:13:31;;;;;;;0.70;0.70;;;;;;;;;;4982941;28;20037;-69
2020/12/29 03:15:57;;;;;;;0.00;0.00;;;;;;;;;;4980172;28;20080;-70
2020/12/29 03:18:25;;;;;;;0.00;0.00;;;;;;;;;;4984604;28;20722;-70
2020/12/29 03:20:50;;;;;;;0.00;0.00;;;;;;;;;;4976226;28;20030;-70
2020/12/29 03:23:16;;;;;;;0.00;0.00;;;;;;;;;;4978849;28;20509;-71
2020/12/29 03:25:41;;;;;;;0.00;0.00;;;;;;;;;;4983521;28;20075;-70
2020/12/29 03:28:09;;;;;;;0.00;0.00;;;;;;;;;;4985269;28;20045;-69
2020/12/29 03:30:37;;;;;;;0.10;0.10;;;;;;;;;;4981029;28;20038;-69
2020/12/29 03:33:06;;;;;;;0.00;0.00;;;;;;;;;;4981484;28;20096;-70
2020/12/29 03:35:31;;;;;;;0.20;0.20;;;;;;;;;;4984842;28;20033;-69
2020/12/29 03:37:59;;;;;;;0.00;0.00;;;;;;;;;;4983049;28;20042;-70
2020/12/29 03:40:25;;;;;;;0.00;0.00;;;;;;;;;;4982348;28;20038;-68
2020/12/29 03:42:52;;;;;;;0.05;0.05;;;;;;;;;;4984828;28;20463;-70
2020/12/29 03:45:18;;;;;;;0.00;0.00;;;;;;;;;;4979643;28;20037;-70
2020/12/29 03:47:43;;;;;;;0.00;0.00;;;;;;;;;;4964414;28;20148;-70
2020/12/29 03:50:09;;;;;;;0.00;0.00;;;;;;;;;;4983238;28;20054;-70
2020/12/29 03:52:35;;;;;;;0.00;0.00;;;;;;;;;;4986057;28;20048;-69
2020/12/29 03:55:00;;;;;;;0.00;0.00;;;;;;;;;;4982455;28;20140;-70
2020/12/29 03:57:28;;;;;;;0.00;0.00;;;;;;;;;;4984625;28;20080;-69
2020/12/29 03:59:54;;;;;;;0.00;0.00;;;;;;;;;;4983454;28;20087;-70
2020/12/29 04:02:19;;;;;;;0.00;0.00;;;;;;;;;;4998085;28;20045;-69
2020/12/29 04:04:45;;;;;;;0.00;0.00;;;;;;;;;;4982105;28;20038;-70
2020/12/29 04:07:10;;;;;;;0.00;0.00;;;;;;;;;;4982646;28;20038;-69
2020/12/29 04:09:36;;;;;;;0.00;0.00;;;;;;;;;;4984383;28;20490;-70
2020/12/29 04:12:12;;;;;;;0.00;0.00;;;;;;;;;;4983707;28;20049;-69
2020/12/29 04:14:38;;;;;;;0.00;0.00;;;;;;;;;;4984099;28;20026;-70
2020/12/29 04:17:06;;;;;;;0.00;0.00;;;;;;;;;;4982667;28;20037;-71
2020/12/29 04:19:31;;;;;;;0.00;0.00;;;;;;;;;;4997690;28;20057;-70
2020/12/29 04:21:57;;;;;;;0.00;0.00;;;;;;;;;;4983114;28;20445;-69
2020/12/29 04:24:23;;;;;;;0.00;0.00;;;;;;;;;;4979372;28;20599;-70
2020/12/29 04:26:48;;;;;;;0.00;0.00;;;;;;;;;;4997331;28;20040;-70
2020/12/29 04:29:14;;;;;;;0.00;0.00;;;;;;;;;;4987072;28;20041;-70
2020/12/29 04:31:40;;;;;;;0.00;0.00;;;;;;;;;;4992321;28;20022;-70
2020/12/29 04:34:05;;;;;;;0.00;0.00;;;;;;;;;;5002257;28;20046;-68
2020/12/29 04:36:33;;;;;;;0.15;0.15;;;;;;;;;;4983606;28;20074;-69
2020/12/29 04:38:59;;;;;;;0.00;0.00;;;;;;;;;;4984793;28;20083;-69
2020/12/29 04:41:25;;;;;;;0.00;0.00;;;;;;;;;;4999403;28;20064;-70
2020/12/29 04:43:55;;;;;;;0.00;0.00;;;;;;;;;;5002355;28;20037;-69
2020/12/29 04:46:21;;;;;;;0.00;0.00;;;;;;;;;;4986596;28;20036;-71
2020/12/29 04:48:47;;;;;;;0.00;0.00;;;;;;;;;;4986556;28;20470;-69
2020/12/29 04:51:15;;;;;;;0.00;0.00;;;;;;;;;;4986395;28;20216;-71
2020/12/29 04:53:47;;;;;;;0.00;0.00;;;;;;;;;;4986572;28;20034;-70
2020/12/29 04:56:13;;;;;;;0.00;0.00;;;;;;;;;;4985510;28;20567;-70
2020/12/29 04:58:41;;;;;;;0.00;0.00;;;;;;;;;;4983231;28;21010;-69
2020/12/29 05:01:10;;;;;;;0.00;0.00;;;;;;;;;;4987190;28;20065;-69
2020/12/29 05:03:42;;;;;;;0.00;0.00;;;;;;;;;;4981394;28;20096;-69
2020/12/29 05:06:08;;;;;;;0.00;0.00;;;;;;;;;;5001285;28;20395;-68
2020/12/29 05:08:34;;;;;;;0.00;0.00;;;;;;;;;;4987115;28;20033;-69
2020/12/29 05:11:00;;;;;;;0.00;0.00;;;;;;;;;;4967303;28;20034;-68
2020/12/29 05:13:25;;;;;;;0.13;0.13;;;;;;;;;;4988185;28;20916;-69
2020/12/29 05:15:54;;;;;;;0.00;0.00;;;;;;;;;;4985186;28;20033;-69
2020/12/29 05:18:22;;;;;;;0.00;0.00;;;;;;;;;;4983673;28;20029;-69
2020/12/29 05:20:50;;;;;;;0.00;0.00;;;;;;;;;;4986799;28;20160;-70
2020/12/29 05:23:18;;;;;;;0.00;0.00;;;;;;;;;;4985224;28;20018;-68
2020/12/29 05:25:47;;;;;;;0.00;0.00;;;;;;;;;;5000887;28;20030;-68
2020/12/29 05:28:13;;;;;;;0.00;0.00;;;;;;;;;;4985835;28;20018;-69
2020/12/29 05:30:41;;;;;;;0.00;0.00;;;;;;;;;;4980331;28;21498;-69
2020/12/29 05:36:09;;;;;;;0.00;0.00;;;;;;;;;;4985634;28;20528;-68
2020/12/29 05:38:40;;;;;;;0.00;0.00;;;;;;;;;;4984627;28;20090;-69
2020/12/29 05:41:09;;;;;;;0.00;0.00;;;;;;;;;;4983939;28;20041;-69
2020/12/29 05:43:34;;;;;;;0.00;0.00;;;;;;;;;;4984321;28;20552;-69
2020/12/29 05:46:07;;;;;;;0.00;0.00;;;;;;;;;;4985381;28;20038;-69
2020/12/29 05:48:33;;;;;;;0.00;0.00;;;;;;;;;;4997230;28;20033;-70
2020/12/29 05:51:12;;;;;;;0.03;0.03;;;;;;;;;;4986478;28;20042;-69
2020/12/29 05:53:38;;;;;;;0.00;0.00;;;;;;;;;;4999061;28;20042;-69
2020/12/29 05:56:04;;;;;;;0.00;0.00;;;;;;;;;;4986365;28;20937;-68
2020/12/29 05:58:32;;;;;;;0.00;0.00;;;;;;;;;;4986288;28;20057;-69
2020/12/29 06:00:58;;;;;;;0.00;0.00;;;;;;;;;;4982064;28;20061;-69
2020/12/29 06:03:23;;;;;;;0.00;0.00;;;;;;;;;;4983198;28;20453;-69
2020/12/29 06:05:50;;;;;;;0.20;0.20;;;;;;;;;;4983440;28;20516;-68
2020/12/29 06:08:19;;;;;;;0.00;0.00;;;;;;;;;;4985886;28;20022;-69
2020/12/29 06:10:53;;;;;;;0.00;0.00;;;;;;;;;;4984988;28;20021;-70
2020/12/29 06:13:25;;;;;;;0.00;0.00;;;;;;;;;;4986024;28;20276;-69
2020/12/29 06:15:56;;;;;;;0.00;0.00;;;;;;;;;;4984243;28;20034;-68
2020/12/29 06:18:34;;;;;;;0.00;0.00;;;;;;;;;;4983520;28;20094;-68
2020/12/29 06:21:09;;;;;;;0.00;0.00;;;;;;;;;;4985438;28;20401;-69
2020/12/29 06:23:41;;;;;;;0.00;0.00;;;;;;;;;;4983600;28;20037;-68
2020/12/29 06:26:08;;;;;;;0.00;0.00;;;;;;;;;;4985167;28;20029;-69
2020/12/29 06:28:37;;;;;;;0.00;0.00;;;;;;;;;;4999849;28;20026;-68
2020/12/29 06:31:05;;;;;;;0.00;0.00;;;;;;;;;;4985646;28;20409;-68
2020/12/29 06:33:31;;;;;;;0.00;0.00;;;;;;;;;;4981371;28;20025;-67
2020/12/29 06:36:01;;;;;;;0.00;0.00;;;;;;;;;;4983856;28;20029;-69
2020/12/29 06:38:28;;;;;;;0.00;0.00;;;;;;;;;;4984486;28;20038;-69
2020/12/29 06:40:54;;;;;;;0.00;0.00;;;;;;;;;;4998977;28;20115;-69
2020/12/29 06:43:19;;;;;;;0.00;0.00;;;;;;;;;;4985464;28;20261;-68
2020/12/29 06:45:48;;;;;;;0.00;0.00;;;;;;;;;;4987936;28;20468;-69
2020/12/29 06:48:20;;;;;;;0.00;0.00;;;;;;;;;;5001448;28;20046;-69
2020/12/29 06:50:45;;;;;;;0.00;0.00;;;;;;;;;;4988968;28;20101;-68
2020/12/29 06:53:15;;;;;;;0.45;0.45;;;;;;;;;;4988394;28;20026;-69
2020/12/29 06:55:49;;;;;;;0.00;0.00;;;;;;;;;;4982255;28;20140;-68
2020/12/29 06:58:43;;;;;;;0.00;0.00;;;;;;;;;;4980044;28;20148;-68
2020/12/29 07:01:19;;;;;;;0.70;0.70;;;;;;;;;;4975873;28;20136;-69
2020/12/29 07:03:45;;;;;;;0.00;0.00;;;;;;;;;;4984944;28;20123;-68
2020/12/29 07:06:13;;;;;;;0.00;0.00;;;;;;;;;;4980944;28;20033;-69
2020/12/29 07:09:04;;;;;;;0.00;0.00;;;;;;;;;;4997823;28;20037;-69
2020/12/29 07:11:29;;;;;;;0.00;0.00;;;;;;;;;;4979155;28;20125;-69
2020/12/29 07:13:59;;;;;;;0.00;0.00;;;;;;;;;;4982642;28;20029;-69
2020/12/29 07:20:00;;;;;;;0.00;0.00;;;;;;;;;;4982487;28;20076;-68
2020/12/29 07:22:26;;;;;;;0.00;0.00;;;;;;;;;;4977894;28;20080;-68
2020/12/29 07:24:54;;;;;;;0.00;0.00;;;;;;;;;;4978912;28;20053;-69
2020/12/29 07:27:20;;;;;;;0.98;0.75;;;;;;;;;;4978966;28;20030;-68
2020/12/29 07:29:49;;;;;;;0.00;0.00;;;;;;;;;;4983735;28;20025;-68
2020/12/29 07:35:19;;;;;;;0.00;0.00;;;;;;;;;;4982291;28;22470;-69
2020/12/29 07:37:51;;;;;;;0.00;0.00;;;;;;;;;;4980890;28;20033;-68
2020/12/29 07:40:17;;;;;;;0.00;0.00;;;;;;;;;;4980647;28;20181;-68
2020/12/29 07:42:42;;;;;;;0.00;0.00;;;;;;;;;;4961049;28;20179;-68
2020/12/29 07:45:10;;;;;;;0.00;0.00;;;;;;;;;;4979819;28;20042;-67
2020/12/29 07:47:35;;;;;;;0.00;0.00;;;;;;;;;;4996977;28;20113;-68
2020/12/29 07:53:19;;;;;;;;;;;;;;;;;;4982238;28;20608;-69
2020/12/29 07:55:46;;;;;;;0.00;0.00;;;;;;;;;;4984117;28;20205;-69
2020/12/29 07:58:14;;;;;;;0.25;0.25;;;;;;;;;;4998979;28;20109;-69
2020/12/29 08:00:42;;;;;;;0.15;0.15;;;;;;;;;;4993983;28;20869;-69
2020/12/29 08:03:12;;;;;;;0.00;0.00;;;;;;;;;;4986679;28;20499;-70
2020/12/29 08:05:40;;;;;;;0.00;0.00;;;;;;;;;;4985167;28;20046;-70
2020/12/29 08:08:09;;;;;;;0.00;0.00;;;;;;;;;;4985009;28;20109;-69
2020/12/29 08:10:38;;;;;;;0.00;0.00;;;;;;;;;;4982880;28;20417;-68
2020/12/29 08:13:10;;;;;;;0.00;0.00;;;;;;;;;;4984089;28;20160;-69
2020/12/29 08:15:46;;;;;;;0.05;0.05;;;;;;;;;;4986723;28;20049;-69
2020/12/29 08:18:21;;;;;;;0.00;0.00;;;;;;;;;;5002161;28;21469;-68
2020/12/29 08:21:11;;;;;;;0.00;0.00;;;;;;;;;;4983428;28;20488;-68
2020/12/29 08:27:12;;;;;;;0.00;0.00;;;;;;;;;;4987149;28;20159;-70
2020/12/29 08:29:38;;;;;;;0.52;0.52;;;;;;;;;;4998341;28;20169;-69
2020/12/29 08:32:07;;;;;;;0.00;0.00;;;;;;;;;;4982200;28;20046;-67
2020/12/29 08:35:07;;;;;;;0.00;0.00;;;;;;;;;;4987085;28;20032;-68
2020/12/29 08:37:33;;;;;;;0.00;0.00;;;;;;;;;;4998529;28;20026;-67
2020/12/29 08:43:45;;;;;;;0.00;0.00;;;;;;;;;;4984321;28;20028;-69
2020/12/29 08:46:17;;;;;;;0.00;0.00;;;;;;;;;;4993133;28;20034;-69
2020/12/29 08:49:00;;;;;;;0.00;0.00;;;;;;;;;;4985009;28;20030;-68
2020/12/29 08:51:31;;;;;;;0.00;0.00;;;;;;;;;;4985469;28;20106;-69
2020/12/29 08:54:31;;;;;;;0.63;0.63;;;;;;;;;;4982750;28;20049;-69
2020/12/29 08:57:02;;;;;;;0.00;0.00;;;;;;;;;;5001768;28;20057;-69
2020/12/29 08:59:36;;;;;;;0.00;0.00;;;;;;;;;;4985951;28;20057;-69
2020/12/29 09:02:04;;;;;;;0.00;0.00;;;;;;;;;;4985204;28;20080;-68
2020/12/29 09:04:30;;;;;;;0.00;0.00;;;;;;;;;;4979747;28;20032;-69
2020/12/29 09:07:11;;;;;;;0.00;0.00;;;;;;;;;;5000612;28;20034;-67
2020/12/29 09:09:58;;;;;;;0.00;0.00;;;;;;;;;;4985337;28;20675;-69
2020/12/29 09:18:41;;;;;;;0.00;0.00;;;;;;;;;;4985400;28;20680;-69
2020/12/29 09:21:25;;;;;;;0.00;0.00;;;;;;;;;;4998670;28;20036;-67
2020/12/29 09:23:57;;;;;;;0.00;0.00;;;;;;;;;;4985229;28;20033;-68
2020/12/29 09:30:11;;;;;;;0.00;0.00;;;;;;;;;;4985582;28;20040;-68
2020/12/29 09:33:00;;;;;;;0.00;0.00;;;;;;;;;;4986091;28;20030;-67
2020/12/29 09:35:35;;;;;;;0.38;0.38;;;;;;;;;;4986229;28;20028;-68
2020/12/29 09:38:14;;;;;;;0.08;0.08;;;;;;;;;;4984834;28;20663;-68
2020/12/29 09:40:45;;;;;;;0.00;0.00;;;;;;;;;;4984611;28;20164;-68
2020/12/29 09:43:11;;;;;;;0.00;0.00;;;;;;;;;;4982007;28;20049;-69
2020/12/29 09:48:43;;;;;;;0.00;0.00;;;;;;;;;;4985090;28;20038;-69
2020/12/29 09:54:46;;;;;;;0.15;0.15;;;;;;;;;;4983382;28;20037;-67
2020/12/29 09:57:31;;;;;;;0.00;0.00;;;;;;;;;;4983955;28;20018;-68
2020/12/29 09:59:58;;;;;;;0.00;0.00;;;;;;;;;;4982894;28;20537;-68
2020/12/29 10:02:44;;;;;;;0.00;0.00;;;;;;;;;;4998950;28;20083;-69
2020/12/29 10:05:12;;;;;;;0.00;0.00;;;;;;;;;;4982457;28;20067;-69
2020/12/29 10:07:52;;;;;;;0.00;0.00;;;;;;;;;;4995227;28;20044;-68
2020/12/29 10:10:18;;;;;;;0.00;0.00;;;;;;;;;;4984427;28;20033;-68
2020/12/29 10:12:44;;;;;;;0.05;0.05;;;;;;;;;;4998790;28;20568;-68
2020/12/29 10:15:18;;;;;;;0.00;0.00;;;;;;;;;;4998688;28;20171;-68
2020/12/29 10:18:18;;;;;;;0.00;0.00;;;;;;;;;;4981137;28;20033;-67
2020/12/29 10:20:50;;;;;;;0.00;0.00;;;;;;;;;;4984771;28;20064;-67
2020/12/29 10:23:24;;;;;;;0.00;0.00;;;;;;;;;;4998046;28;20036;-68
2020/12/29 10:25:50;;;;;;;;;;;;;;;;;;4983258;28;20084;-67
2020/12/29 10:28:16;;;;;;;0.00;0.00;;;;;;;;;;4983438;28;19917;-65
2020/12/29 10:30:44;;;;;;;0.00;0.00;;;;;;;;;;4982354;28;20041;-67
2020/12/29 10:33:12;;;;;;;0.00;0.00;;;;;;;;;;4983150;28;20026;-66
2020/12/29 10:35:40;;;;;;;0.00;0.00;;;;;;;;;;4998891;28;20026;-68
2020/12/29 10:38:11;;;;;;;0.00;0.00;;;;;;;;;;4981781;28;22168;-67
2020/12/29 10:44:16;;;;;;;0.00;0.00;;;;;;;;;;4983911;28;20286;-68
2020/12/29 10:47:02;;;;;;;0.70;0.70;;;;;;;;;;4980600;28;21526;-67
2020/12/29 10:49:35;;;;;;;0.00;0.00;;;;;;;;;;4980649;28;20108;-67
2020/12/29 10:52:03;;;;;;;0.00;0.00;;;;;;;;;;4996524;28;20635;-67
2020/12/29 10:54:33;;;;;;;0.00;0.00;;;;;;;;;;4982718;28;20038;-67
2020/12/29 10:57:13;;;;;;;0.00;0.00;;;;;;;;;;4982342;28;20128;-66
2020/12/29 10:59:41;;;;;;;0.00;0.00;;;;;;;;;;4983024;28;20128;-67
2020/12/29 11:02:30;;;;;;;0.00;0.00;;;;;;;;;;4982672;28;20045;-66
2020/12/29 11:08:31;;;;;;;0.00;0.00;;;;;;;;;;4979000;28;20079;-68
2020/12/29 11:14:32;;;;;;;0.00;0.00;;;;;;;;;;4982988;28;20083;-65
2020/12/29 11:16:58;;;;;;;0.00;0.00;;;;;;;;;;4981999;28;20647;-67
2020/12/29 11:23:02;;;;;;;0.00;0.00;;;;;;;;;;4982314;28;20037;-67
2020/12/29 11:25:29;;;;;;;2.00;0.75;;;;;;;;;;4981284;28;20611;-66
2020/12/29 11:28:10;;;;;;;0.08;0.08;;;;;;;;;;4982179;28;20170;-69
2020/12/29 11:30:43;;;;;;;0.65;0.65;;;;;;;;;;4996971;28;20034;-66
2020/12/29 11:33:11;;;;;;;0.00;0.00;;;;;;;;;;4996740;28;20044;-67
2020/12/29 11:35:37;;;;;;;0.00;0.00;;;;;;;;;;4982676;28;20041;-68
2020/12/29 11:38:03;;;;;;;0.00;0.00;;;;;;;;;;4983065;28;20497;-67
2020/12/29 11:40:53;;;;;;;0.00;0.00;;;;;;;;;;4996921;28;20044;-67
2020/12/29 11:43:19;;;;;;;0.00;0.00;;;;;;;;;;4982829;28;20108;-67
2020/12/29 11:45:59;;;;;;;0.00;0.00;;;;;;;;;;4997821;28;20042;-67
2020/12/29 11:48:26;;;;;;;0.00;0.00;;;;;;;;;;4981674;28;20083;-67
2020/12/29 11:50:51;;;;;;;0.00;0.00;;;;;;;;;;4983263;28;20038;-67
2020/12/29 11:53:19;;;;;;;0.00;0.00;;;;;;;;;;4983625;28;20161;-66
2020/12/29 11:55:47;;;;;;;0.00;0.00;;;;;;;;;;4980938;28;20110;-67
2020/12/29 11:58:12;;;;;;;0.00;0.00;;;;;;;;;;4983314;28;20038;-66
2020/12/29 12:00:38;;;;;;;0.00;0.00;;;;;;;;;;4979703;28;20033;-67
2020/12/29 12:06:45;;;;;;;0.00;0.00;;;;;;;;;;4983495;28;20073;-67
2020/12/29 12:09:13;;;;;;;0.00;0.00;;;;;;;;;;4997439;28;20030;-66
2020/12/29 12:11:39;;;;;;;0.00;0.00;;;;;;;;;;4980449;28;20072;-67
2020/12/29 12:17:42;;;;;;;0.00;0.00;;;;;;;;;;4980007;28;20212;-64
2020/12/29 12:20:13;;;;;;;0.00;0.00;;;;;;;;;;4981283;28;20173;-66
2020/12/29 12:22:50;;;;;;;0.00;0.00;;;;;;;;;;4982539;28;20083;-63
2020/12/29 12:28:51;;;;;;;0.00;0.00;;;;;;;;;;4979029;28;20041;-65
2020/12/29 12:31:22;;;;;;;0.00;0.00;;;;;;;;;;4997266;28;20464;-64
2020/12/29 12:33:52;;;;;;;0.15;0.15;;;;;;;;;;4982097;28;20025;-64
2020/12/29 12:36:19;;;;;;;0.00;0.00;;;;;;;;;;4978572;28;20056;-64
2020/12/29 12:38:50;;;;;;;0.00;0.00;;;;;;;;;;4982201;28;20049;-66
2020/12/29 12:41:15;;;;;;;0.00;0.00;;;;;;;;;;4994657;28;21641;-66
2020/12/29 12:43:43;;;;;;;0.00;0.00;;;;;;;;;;4996530;28;20465;-66
2020/12/29 12:46:09;;;;;;;0.00;0.00;;;;;;;;;;4996048;28;20454;-67
2020/12/29 12:52:13;;;;;;;1.35;0.73;;;;;;;;;;4980712;28;20080;-66
2020/12/29 12:54:41;;;;;;;0.00;0.00;;;;;;;;;;4985496;28;20030;-67
2020/12/29 12:57:09;;;;;;;0.00;0.00;;;;;;;;;;5000095;28;20428;-66
2020/12/29 12:59:35;;;;;;;0.00;0.00;;;;;;;;;;4982808;28;20144;-67
2020/12/29 13:02:02;;;;;;;0.65;0.20;;;;;;;;;;4984346;28;20095;-66
2020/12/29 13:04:28;;;;;;;3.05;2.85;;;;;;;;;;4986107;28;20038;-67
2020/12/29 13:06:55;;;;;;;2.47;1.38;;;;;;;;;;5000050;28;20042;-67
2020/12/29 13:09:33;;;;;;;6.60;3.67;;;;;;;;;;4998504;28;20041;-67
2020/12/29 13:11:59;;;;;;;2.45;2.10;;;;;;;;;;4983873;28;20049;-67
2020/12/29 13:18:05;;;;;;;12.15;3.28;;;;;;;;;;4985281;28;20040;-66
2020/12/29 13:20:30;;;;;;;2.95;2.78;;;;;;;;;;5000428;28;20385;-66
2020/12/29 13:23:08;;;;;;;3.25;2.95;;;;;;;;;;4981470;28;20030;-65
2020/12/29 13:25:39;;;;;;;0.45;0.45;;;;;;;;;;4982361;28;20038;-65
2020/12/29 13:28:09;;;;;;;0.07;0.07;;;;;;;;;;4983787;28;20030;-65
2020/12/29 13:34:10;;;;;;;2.00;1.70;;;;;;;;;;4985667;28;20663;-68
2020/12/29 13:36:36;;;;;;;0.00;0.00;;;;;;;;;;4983726;28;20029;-64
2020/12/29 13:39:26;;;;;;;0.08;0.08;;;;;;;;;;4997626;28;20048;-66
2020/12/29 13:41:59;;;;;;;0.00;0.00;;;;;;;;;;4986544;28;20498;-65
2020/12/29 13:44:24;;;;;;;0.00;0.00;;;;;;;;;;4987100;28;20042;-67
2020/12/29 13:47:01;;;;;;;0.00;0.00;;;;;;;;;;4984293;28;20560;-65
2020/12/29 13:53:05;;;;;;;0.00;0.00;;;;;;;;;;4981361;28;20084;-65
2020/12/29 13:56:03;;;;;;;0.30;0.30;;;;;;;;;;5000175;28;20045;-67
2020/12/29 13:58:40;;;;;;;0.30;0.13;;;;;;;;;;4985082;28;20033;-66
2020/12/29 14:01:31;;;;;;;0.30;0.30;;;;;;;;;;4984987;28;20033;-65
2020/12/29 14:04:09;;;;;;;1.55;0.55;;;;;;;;;;4983410;28;20065;-64
2020/12/29 14:06:36;;;;;;;0.00;0.00;;;;;;;;;;4999528;28;20706;-64
2020/12/29 14:09:15;;;;;;;0.00;0.00;;;;;;;;;;4985321;28;20142;-66
2020/12/29 14:15:51;;;;;;;0.10;0.10;;;;;;;;;;4984000;28;20524;-65
2020/12/29 14:18:19;;;;;;;0.03;0.03;;;;;;;;;;4983059;28;20052;-65
2020/12/29 14:20:49;;;;;;;0.00;0.00;;;;;;;;;;4997145;28;20033;-64
2020/12/29 14:23:20;;;;;;;0.25;0.15;;;;;;;;;;4998525;28;20030;-64
2020/12/29 14:25:55;;;;;;;0.03;0.03;;;;;;;;;;4984708;28;20293;-64
2020/12/29 14:32:06;;;;;;;0.00;0.00;;;;;;;;;;4981126;28;20029;-66
2020/12/29 14:38:07;;;;;;;0.00;0.00;;;;;;;;;;4982569;28;20032;-66
2020/12/29 14:40:33;;;;;;;0.00;0.00;;;;;;;;;;4997648;28;20053;-65
2020/12/29 14:42:59;;;;;;;0.00;0.00;;;;;;;;;;4981827;28;20133;-65
2020/12/29 14:45:28;;;;;;;0.00;0.00;;;;;;;;;;4982825;28;20453;-64
2020/12/29 14:47:54;;;;;;;0.00;0.00;;;;;;;;;;4983383;28;20656;-64
2020/12/29 14:50:20;;;;;;;0.00;0.00;;;;;;;;;;4980613;28;20432;-65
2020/12/29 14:52:48;;;;;;;0.00;0.00;;;;;;;;;;4982606;28;20446;-64
2020/12/29 14:55:20;;;;;;;0.00;0.00;;;;;;;;;;4995845;28;20503;-66
2020/12/29 14:57:48;;;;;;;0.00;0.00;;;;;;;;;;4997072;28;20177;-66
2020/12/29 15:03:30;;;;;;;0.00;0.00;;;;;;;;;;4981424;28;20354;-66
2020/12/29 15:05:56;;;;;;;0.00;0.00;;;;;;;;;;4994247;28;20046;-66
2020/12/29 15:08:21;;;;;;;0.00;0.00;;;;;;;;;;4979998;28;20026;-66
2020/12/29 15:14:33;;;;;;;0.00;0.00;;;;;;;;;;4982463;28;20036;-64
2020/12/29 15:17:01;;;;;;;1.38;0.55;;;;;;;;;;4982319;28;20533;-62
2020/12/29 15:19:55;;;;;;;0.03;0.03;;;;;;;;;;4999267;28;20149;-64
2020/12/29 15:22:30;;;;;;;0.40;0.40;;;;;;;;;;4982127;28;20644;-64
2020/12/29 15:25:02;;;;;;;0.00;0.00;;;;;;;;;;4983101;28;20065;-66
2020/12/29 15:27:27;;;;;;;0.00;0.00;;;;;;;;;;4979680;28;20128;-64
2020/12/29 15:29:56;;;;;;;0.00;0.00;;;;;;;;;;4992799;28;20094;-65
2020/12/29 15:36:00;;;;;;;0.00;0.00;;;;;;;;;;4984153;28;20080;-66
2020/12/29 15:42:01;;;;;;;0.00;0.00;;;;;;;;;;4976199;28;20111;-66
2020/12/29 15:44:29;;;;;;;0.00;0.00;;;;;;;;;;4983292;28;20999;-64
2020/12/29 15:50:29;;;;;;;3.55;0.68;;;;;;;;;;4980780;28;20595;-66
2020/12/29 15:56:23;;;;;;;1.92;0.85;;;;;;;;;;4974217;28;20049;-65
2020/12/29 15:58:51;;;;;;;0.00;0.00;;;;;;;;;;4980218;28;20078;-65
2020/12/29 16:04:39;;;;;;;0.00;0.00;;;;;;;;;;4982882;28;20038;-65
2020/12/29 16:07:05;;;;;;;0.00;0.00;;;;;;;;;;4981057;28;20108;-64
2020/12/29 16:09:33;;;;;;;0.00;0.00;;;;;;;;;;4998165;28;20469;-65
2020/12/29 16:12:00;;;;;;;0.30;0.30;;;;;;;;;;4979786;28;20324;-65
2020/12/29 16:14:28;;;;;;;0.00;0.00;;;;;;;;;;4995193;28;20929;-65
2020/12/29 16:16:59;;;;;;;0.00;0.00;;;;;;;;;;4995995;28;20042;-64
2020/12/29 16:19:27;;;;;;;0.00;0.00;;;;;;;;;;4982079;28;20275;-64
2020/12/29 16:21:55;;;;;;;0.00;0.00;;;;;;;;;;4998368;28;20026;-62
2020/12/29 16:24:23;;;;;;;0.00;0.00;;;;;;;;;;4999825;28;20049;-65
2020/12/29 16:26:53;;;;;;;0.00;0.00;;;;;;;;;;4986429;28;20536;-62
2020/12/29 16:29:19;;;;;;;0.00;0.00;;;;;;;;;;4985300;28;20133;-63
2020/12/29 16:31:46;;;;;;;0.00;0.00;;;;;;;;;;4988176;28;21738;-64
2020/12/29 16:34:11;;;;;;;0.00;0.00;;;;;;;;;;4981278;28;20056;-65
2020/12/29 16:36:39;;;;;;;0.00;0.00;;;;;;;;;;4986501;28;20395;-62
2020/12/29 16:39:05;;;;;;;0.00;0.00;;;;;;;;;;4985892;28;20033;-64
2020/12/29 16:41:35;;;;;;;0.10;0.10;;;;;;;;;;4985370;28;20060;-68
2020/12/29 16:44:01;;;;;;;0.00;0.00;;;;;;;;;;4984488;28;20065;-63
2020/12/29 16:46:29;;;;;;;0.68;0.68;;;;;;;;;;5000255;28;20030;-63
2020/12/29 16:48:57;;;;;;;0.20;0.20;;;;;;;;;;5000869;28;20057;-64
2020/12/29 16:51:25;;;;;;;0.00;0.00;;;;;;;;;;4983047;28;20434;-64